Time;durP1;ratioP1;P1;durP2;ratioP2;P2;SDS_P1;SDS_P2;PMS_P1;PMS_P2;Temp;Humidity;BMP_temperature;BMP_pressure;BME280_temperature;BME280_humidity;BME280_pressure;Samples;Min_cycle;Max_cycle;Signal;HPM_P1;HPM_P2
2023/05/20 00:02:14;;;;;;;6.57;5.97;;;;;;;12.62;100.00;96572.03;5070551;28;20234;-61
2023/05/20 00:04:42;;;;;;;6.40;5.80;;;;;;;12.63;100.00;96581.66;5070386;28;20210;-61
2023/05/20 00:07:09;;;;;;;6.57;5.83;;;;;;;12.62;100.00;96587.97;5070317;28;20210;-60
2023/05/20 00:09:35;;;;;;;6.33;5.73;;;;;;;12.58;100.00;96575.16;5069281;28;20202;-62
2023/05/20 00:12:03;;;;;;;6.63;6.00;;;;;;;12.58;100.00;96577.81;5070839;28;20217;-61
2023/05/20 00:14:30;;;;;;;6.67;6.07;;;;;;;12.58;100.00;96577.81;5070612;28;20206;-60
2023/05/20 00:16:56;;;;;;;6.53;5.93;;;;;;;12.53;100.00;96574.81;5071444;28;20214;-61
2023/05/20 00:19:23;;;;;;;6.80;6.20;;;;;;;12.48;100.00;96572.63;5070405;28;20666;-61
2023/05/20 00:21:49;;;;;;;6.47;5.87;;;;;;;12.50;100.00;96568.00;5073929;28;20207;-61
2023/05/20 00:24:16;;;;;;;6.83;6.13;;;;;;;12.51;100.00;96567.00;5073927;28;20205;-61
2023/05/20 00:26:42;;;;;;;6.90;6.20;;;;;;;12.49;100.00;96568.97;5073590;28;20214;-61
2023/05/20 00:29:10;;;;;;;6.90;6.20;;;;;;;12.50;100.00;96565.34;5072990;28;20214;-62
2023/05/20 00:31:36;;;;;;;6.93;6.23;;;;;;;12.46;100.00;96561.34;5073727;28;20206;-61
2023/05/20 00:34:03;;;;;;;8.60;6.10;;;;;;;12.40;100.00;96565.44;5072965;28;20210;-61
2023/05/20 00:36:30;;;;;;;6.50;5.83;;;;;;;12.34;100.00;96557.28;5073737;28;20206;-61
2023/05/20 00:38:58;;;;;;;6.60;6.10;;;;;;;12.26;100.00;96554.56;5072465;28;20264;-61
2023/05/20 00:41:25;;;;;;;6.17;5.77;;;;;;;12.22;100.00;96561.19;5073740;28;20198;-61
2023/05/20 00:43:53;;;;;;;7.43;6.07;;;;;;;12.22;100.00;96555.88;5072859;28;20303;-61
2023/05/20 00:46:21;;;;;;;7.53;6.60;;;;;;;12.08;100.00;96561.75;5074084;28;20210;-61
2023/05/20 00:48:50;;;;;;;7.00;6.20;;;;;;;11.95;100.00;96557.66;5073318;28;20256;-61
2023/05/20 00:51:17;;;;;;;8.17;6.90;;;;;;;11.89;100.00;96547.69;5073660;28;20252;-61
2023/05/20 00:53:43;;;;;;;7.10;6.40;;;;;;;11.84;100.00;96543.81;5074314;28;20225;-64
2023/05/20 00:56:10;;;;;;;7.07;6.10;;;;;;;11.80;100.00;96540.63;5073831;28;20206;-62
2023/05/20 00:58:37;;;;;;;6.90;6.20;;;;;;;11.67;100.00;96545.47;5073161;28;20206;-61
2023/05/20 01:01:05;;;;;;;6.93;6.33;;;;;;;11.59;100.00;96542.75;5073300;28;20323;-62
2023/05/20 01:03:33;;;;;;;7.53;6.47;;;;;;;11.56;100.00;96545.69;5073050;28;20226;-61
2023/05/20 01:05:59;;;;;;;7.13;6.43;;;;;;;11.47;100.00;96549.25;5072495;28;20198;-61
2023/05/20 01:08:27;;;;;;;7.33;6.63;;;;;;;11.43;100.00;96537.31;5072331;28;20214;-60
2023/05/20 01:10:58;;;;;;;6.73;6.23;;;;;;;11.40;100.00;96535.81;5072844;28;20246;-60
2023/05/20 01:13:28;;;;;;;7.47;6.73;;;;;;;11.26;100.00;96540.78;5072355;28;20190;-61
2023/05/20 01:15:55;;;;;;;6.73;6.13;;;;;;;11.20;100.00;96533.41;5072780;28;20544;-61
2023/05/20 01:18:24;;;;;;;7.00;6.40;;;;;;;11.15;100.00;96535.69;5072070;28;20706;-61
2023/05/20 01:20:53;;;;;;;7.33;6.47;;;;;;;11.11;100.00;96531.66;5072850;28;20233;-61
2023/05/20 01:23:21;;;;;;;7.47;6.67;;;;;;;11.03;100.00;96532.41;5072624;28;20244;-61
2023/05/20 01:25:49;;;;;;;7.83;7.13;;;;;;;10.99;100.00;96533.69;5073012;28;20221;-60
2023/05/20 01:28:16;;;;;;;7.70;6.97;;;;;;;10.92;100.00;96533.44;5072355;28;20601;-60
2023/05/20 01:30:48;;;;;;;8.10;7.30;;;;;;;10.93;100.00;96535.13;5071527;28;20210;-60
2023/05/20 01:33:15;;;;;;;7.80;7.13;;;;;;;10.84;100.00;96528.06;5071570;28;20202;-61
2023/05/20 01:35:42;;;;;;;9.70;6.63;;;;;;;10.80;100.00;96532.00;5072046;28;20217;-59
2023/05/20 01:38:09;;;;;;;7.30;6.60;;;;;;;10.75;100.00;96528.09;5072216;28;20208;-61
2023/05/20 01:40:37;;;;;;;8.00;7.20;;;;;;;10.71;100.00;96519.63;5072686;28;20550;-59
2023/05/20 01:43:04;;;;;;;7.70;6.90;;;;;;;10.71;100.00;96529.38;5071873;28;20307;-61
2023/05/20 01:45:33;;;;;;;7.50;6.90;;;;;;;10.77;100.00;96520.88;5074455;28;20207;-61
2023/05/20 01:48:00;;;;;;;7.73;6.97;;;;;;;10.79;100.00;96522.38;5079092;28;20203;-61
2023/05/20 01:50:27;;;;;;;8.00;7.00;;;;;;;10.78;100.00;96522.53;5079473;28;20198;-60
2023/05/20 01:52:53;;;;;;;7.47;6.50;;;;;;;10.79;100.00;96521.56;5077323;28;20206;-61
2023/05/20 01:55:20;;;;;;;7.33;6.63;;;;;;;10.76;100.00;96521.84;5078299;28;20218;-60
2023/05/20 01:57:48;;;;;;;7.57;6.80;;;;;;;10.78;100.00;96518.06;5078576;28;20206;-60
2023/05/20 02:00:14;;;;;;;10.60;7.43;;;;;;;10.77;100.00;96519.03;5080028;28;20222;-61
2023/05/20 02:02:41;;;;;;;7.07;6.47;;;;;;;10.73;100.00;96509.75;5078369;28;20222;-60
2023/05/20 02:05:08;;;;;;;7.67;7.07;;;;;;;10.67;100.00;96499.75;5083575;28;20198;-60
2023/05/20 02:07:35;;;;;;;8.90;7.10;;;;;;;10.77;100.00;96497.06;5076768;28;20206;-61
2023/05/20 02:10:01;;;;;;;7.03;6.43;;;;;;;10.75;100.00;96499.00;5083489;28;20202;-60
2023/05/20 02:12:27;;;;;;;7.87;7.07;;;;;;;10.68;100.00;96504.06;5079005;28;20191;-61
2023/05/20 02:14:55;;;;;;;8.07;7.37;;;;;;;10.64;100.00;96504.50;5074103;28;20210;-61
2023/05/20 02:17:24;;;;;;;7.87;6.93;;;;;;;10.70;100.00;96507.38;5078956;28;20206;-60
2023/05/20 02:19:51;;;;;;;7.70;7.10;;;;;;;10.67;100.00;96502.38;5081144;28;20198;-60
2023/05/20 02:22:17;;;;;;;7.63;6.93;;;;;;;10.67;100.00;96491.81;5078418;28;20234;-61
2023/05/20 02:24:44;;;;;;;8.07;7.27;;;;;;;10.62;100.00;96487.97;5080572;28;20198;-63
2023/05/20 02:27:11;;;;;;;7.57;6.87;;;;;;;10.60;100.00;96490.72;5071463;28;20230;-61
2023/05/20 02:29:38;;;;;;;9.00;8.07;;;;;;;10.61;100.00;96489.75;5071228;28;20194;-61
2023/05/20 02:32:07;;;;;;;12.63;7.77;;;;;;;10.55;100.00;96493.00;5072466;28;20199;-61
2023/05/20 02:34:35;;;;;;;8.37;7.47;;;;;;;10.53;100.00;96494.94;5071699;28;20609;-60
2023/05/20 02:37:02;;;;;;;8.23;7.53;;;;;;;10.52;100.00;96498.59;5072235;28;20199;-61
2023/05/20 02:39:28;;;;;;;8.53;7.73;;;;;;;10.48;100.00;96507.78;5072864;28;20237;-61
2023/05/20 02:41:55;;;;;;;8.20;7.50;;;;;;;10.51;100.00;96504.84;5073669;28;20299;-61
2023/05/20 02:44:21;;;;;;;10.07;7.97;;;;;;;10.47;100.00;96500.81;5072256;28;20754;-61
2023/05/20 02:46:48;;;;;;;8.23;7.53;;;;;;;10.43;100.00;96507.38;5072640;28;20203;-61
2023/05/20 02:49:15;;;;;;;9.47;7.00;;;;;;;10.38;100.00;96509.66;5070722;28;20217;-61
2023/05/20 02:51:42;;;;;;;9.67;8.70;;;;;;;10.32;100.00;96507.56;5070799;28;20198;-61
2023/05/20 02:54:08;;;;;;;10.53;7.73;;;;;;;10.31;100.00;96509.34;5070403;28;20509;-61
2023/05/20 02:56:35;;;;;;;9.17;8.07;;;;;;;10.34;100.00;96506.47;5070134;28;20255;-61
2023/05/20 02:59:02;;;;;;;8.47;7.67;;;;;;;10.26;100.00;96506.34;5070481;28;20202;-61
2023/05/20 03:01:29;;;;;;;9.60;7.87;;;;;;;10.28;100.00;96495.59;5070596;28;20332;-60
2023/05/20 03:03:55;;;;;;;8.07;7.27;;;;;;;10.23;100.00;96487.28;5071236;28;20222;-62
2023/05/20 03:06:23;;;;;;;8.33;7.63;;;;;;;10.28;100.00;96492.97;5074563;28;20210;-61
2023/05/20 03:08:50;;;;;;;8.23;7.53;;;;;;;10.17;100.00;96487.84;5073966;28;20225;-61
2023/05/20 03:11:16;;;;;;;7.53;6.83;;;;;;;10.19;100.00;96491.19;5073454;28;20206;-61
2023/05/20 03:13:43;;;;;;;9.73;7.83;;;;;;;10.10;100.00;96492.84;5073403;28;20202;-61
2023/05/20 03:16:11;;;;;;;8.57;7.73;;;;;;;10.15;100.00;96492.47;5073649;28;20268;-62
2023/05/20 03:18:38;;;;;;;8.47;7.77;;;;;;;10.07;100.00;96493.13;5075340;28;20202;-60
2023/05/20 03:21:04;;;;;;;9.00;8.20;;;;;;;10.06;100.00;96498.59;5070737;28;20206;-60
2023/05/20 03:23:32;;;;;;;8.77;7.90;;;;;;;10.03;100.00;96497.03;5070020;28;20690;-61
2023/05/20 03:25:59;;;;;;;8.90;8.10;;;;;;;10.05;100.00;96497.75;5070456;28;20225;-60
2023/05/20 03:28:25;;;;;;;8.80;7.93;;;;;;;10.01;100.00;96485.78;5069851;28;20209;-60
2023/05/20 03:30:52;;;;;;;8.97;8.17;;;;;;;10.02;100.00;96486.63;5070322;28;20300;-61
2023/05/20 03:33:19;;;;;;;9.40;8.10;;;;;;;9.90;100.00;96476.22;5070439;28;20205;-61
2023/05/20 03:35:45;;;;;;;9.07;8.20;;;;;;;9.80;100.00;96478.06;5069334;28;20710;-60
2023/05/20 03:38:12;;;;;;;9.37;8.47;;;;;;;9.84;100.00;96482.09;5070457;28;20203;-60
2023/05/20 03:40:40;;;;;;;9.60;8.60;;;;;;;9.84;100.00;96476.81;5070287;28;20207;-60
2023/05/20 03:43:06;;;;;;;9.97;8.90;;;;;;;9.78;100.00;96477.34;5069825;28;20253;-60
2023/05/20 03:45:33;;;;;;;9.33;8.47;;;;;;;9.89;100.00;96479.84;5070564;28;20210;-61
2023/05/20 03:47:59;;;;;;;9.23;8.33;;;;;;;9.84;100.00;96475.97;5069979;28;20202;-61
2023/05/20 03:50:26;;;;;;;9.70;8.70;;;;;;;9.87;100.00;96483.59;5070205;28;20198;-60
2023/05/20 03:52:52;;;;;;;9.63;8.63;;;;;;;9.90;100.00;96475.41;5069543;28;20657;-60
2023/05/20 03:55:20;;;;;;;10.03;8.97;;;;;;;9.91;100.00;96472.63;5071847;28;20210;-60
2023/05/20 03:57:47;;;;;;;9.33;8.40;;;;;;;9.97;100.00;96477.31;5073759;28;20202;-60
2023/05/20 04:00:15;;;;;;;10.10;8.93;;;;;;;9.99;100.00;96480.66;5074053;28;20210;-61
2023/05/20 04:02:42;;;;;;;10.37;9.30;;;;;;;10.02;100.00;96484.00;5074264;28;20198;-60
2023/05/20 04:05:09;;;;;;;9.67;8.67;;;;;;;10.08;100.00;96472.84;5074218;28;20226;-61
2023/05/20 04:07:36;;;;;;;10.23;9.07;;;;;;;10.13;100.00;96478.53;5073360;28;20569;-60
2023/05/20 04:10:02;;;;;;;10.10;9.20;;;;;;;10.22;100.00;96475.88;5073238;28;20642;-61
2023/05/20 04:12:30;;;;;;;10.23;9.33;;;;;;;10.30;100.00;96477.81;5073446;28;20268;-60
2023/05/20 04:15:00;;;;;;;10.20;9.23;;;;;;;10.34;100.00;96474.75;5072869;28;20537;-60
2023/05/20 04:17:27;;;;;;;9.87;8.93;;;;;;;10.44;100.00;96474.69;5073282;28;20213;-60
2023/05/20 04:19:53;;;;;;;11.00;9.13;;;;;;;10.53;100.00;96480.88;5073457;28;20214;-60
2023/05/20 04:22:20;;;;;;;9.87;8.87;;;;;;;10.62;100.00;96485.31;5073083;28;20234;-61
2023/05/20 04:24:46;;;;;;;10.00;9.00;;;;;;;10.63;100.00;96487.78;5073251;28;20257;-60
2023/05/20 04:27:13;;;;;;;9.57;8.60;;;;;;;10.69;100.00;96495.16;5073253;28;20218;-60
2023/05/20 04:29:44;;;;;;;9.43;8.53;;;;;;;10.76;100.00;96496.25;5072638;28;20199;-61
2023/05/20 04:32:12;;;;;;;9.90;8.93;;;;;;;10.81;100.00;96501.91;5073316;28;20202;-61
2023/05/20 04:34:39;;;;;;;9.77;8.87;;;;;;;10.85;100.00;96495.34;5073220;28;20511;-60
2023/05/20 04:37:06;;;;;;;10.33;8.90;;;;;;;10.90;100.00;96495.75;5072977;28;20643;-61
2023/05/20 04:39:33;;;;;;;10.17;8.73;;;;;;;10.97;100.00;96493.31;5073262;28;20203;-60
2023/05/20 04:41:59;;;;;;;9.40;8.60;;;;;;;11.04;100.00;96496.19;5073039;28;20198;-60
2023/05/20 04:44:27;;;;;;;9.77;8.87;;;;;;;11.13;100.00;96490.00;5072614;28;20230;-61
2023/05/20 04:46:53;;;;;;;9.43;8.43;;;;;;;11.19;100.00;96492.91;5073035;28;20272;-61
2023/05/20 04:49:21;;;;;;;10.13;9.23;;;;;;;11.26;100.00;96495.78;5072988;28;20597;-60
2023/05/20 04:51:48;;;;;;;10.67;9.60;;;;;;;11.35;100.00;96493.03;5072860;28;20539;-60
2023/05/20 04:54:16;;;;;;;9.50;8.63;;;;;;;11.44;100.00;96486.03;5071455;28;20194;-60
2023/05/20 04:56:43;;;;;;;10.17;9.17;;;;;;;11.47;100.00;96480.41;5072851;28;20214;-60
2023/05/20 04:59:09;;;;;;;10.63;9.53;;;;;;;11.58;100.00;96485.47;5072598;28;20191;-59
2023/05/20 05:01:36;;;;;;;12.33;9.70;;;;;;;11.66;100.00;96485.53;5072563;28;20577;-61
2023/05/20 05:04:02;;;;;;;10.00;9.00;;;;;;;11.73;100.00;96481.31;5073356;28;20226;-61
2023/05/20 05:06:30;;;;;;;9.83;8.93;;;;;;;11.81;100.00;96485.84;5073520;28;20210;-61
2023/05/20 05:08:57;;;;;;;10.80;9.70;;;;;;;11.90;100.00;96482.28;5073578;28;20194;-59
2023/05/20 05:11:23;;;;;;;9.93;8.90;;;;;;;12.00;100.00;96476.88;5072263;28;20209;-60
2023/05/20 05:13:50;;;;;;;10.70;9.53;;;;;;;12.06;100.00;96465.63;5072111;28;20206;-59
2023/05/20 05:16:16;;;;;;;11.27;10.07;;;;;;;12.11;100.00;96476.63;5072354;28;20221;-61
2023/05/20 05:18:42;;;;;;;10.60;9.60;;;;;;;12.16;100.00;96476.97;5072718;28;20285;-61
2023/05/20 05:21:09;;;;;;;11.13;10.03;;;;;;;12.22;100.00;96471.06;5071883;28;20650;-61
2023/05/20 05:23:37;;;;;;;11.17;10.00;;;;;;;12.27;100.00;96469.56;5071801;28;20238;-60
2023/05/20 05:26:03;;;;;;;10.73;9.73;;;;;;;12.32;100.00;96459.34;5072389;28;20203;-60
2023/05/20 05:28:30;;;;;;;10.03;9.03;;;;;;;12.41;100.00;96466.34;5072195;28;20218;-61
2023/05/20 05:30:56;;;;;;;11.57;10.40;;;;;;;12.40;100.00;96463.81;5072179;28;20206;-60
2023/05/20 05:33:23;;;;;;;10.73;9.73;;;;;;;12.50;100.00;96469.88;5072020;28;20252;-61
2023/05/20 05:35:50;;;;;;;12.53;9.80;;;;;;;12.52;100.00;96475.00;5072228;28;20207;-61
2023/05/20 05:38:16;;;;;;;12.73;10.43;;;;;;;12.52;100.00;96467.03;5071897;28;20195;-59
2023/05/20 05:40:45;;;;;;;11.27;10.17;;;;;;;12.58;100.00;96461.91;5071966;28;20221;-61
2023/05/20 05:43:13;;;;;;;11.03;10.03;;;;;;;12.66;100.00;96456.66;5071396;28;20203;-59
2023/05/20 05:45:41;;;;;;;10.07;9.27;;;;;;;12.74;100.00;96463.81;5071910;28;20218;-60
2023/05/20 05:48:07;;;;;;;12.53;11.33;;;;;;;12.74;100.00;96462.00;5071935;28;20218;-60
2023/05/20 05:50:34;;;;;;;11.70;10.00;;;;;;;12.76;100.00;96465.31;5072068;28;20666;-61
2023/05/20 05:53:04;;;;;;;11.60;10.30;;;;;;;12.78;100.00;96460.69;5072146;28;20263;-59
2023/05/20 05:55:30;;;;;;;11.77;10.67;;;;;;;12.82;100.00;96463.84;5071890;28;20203;-59
2023/05/20 05:57:58;;;;;;;11.47;10.30;;;;;;;12.87;100.00;96470.31;5071459;28;20203;-60
2023/05/20 06:00:25;;;;;;;11.93;10.73;;;;;;;12.88;100.00;96472.00;5071657;28;20217;-60
2023/05/20 06:02:51;;;;;;;11.47;10.23;;;;;;;12.93;100.00;96461.72;5071275;28;20210;-61
2023/05/20 06:05:18;;;;;;;16.97;10.67;;;;;;;12.99;100.00;96462.91;5071566;28;20230;-60
2023/05/20 06:07:45;;;;;;;11.23;10.20;;;;;;;13.02;100.00;96469.69;5070743;28;20646;-60
2023/05/20 06:10:11;;;;;;;13.47;10.67;;;;;;;13.01;100.00;96470.69;5071474;28;20206;-61
2023/05/20 06:12:39;;;;;;;11.30;10.20;;;;;;;13.12;100.00;96465.09;5071192;28;20218;-60
2023/05/20 06:15:08;;;;;;;10.63;9.70;;;;;;;13.17;100.00;96460.16;5070609;28;20508;-60
2023/05/20 06:17:34;;;;;;;10.40;9.40;;;;;;;13.30;100.00;96450.72;5070764;28;20222;-61
2023/05/20 06:20:01;;;;;;;11.63;10.43;;;;;;;13.37;100.00;96445.56;5071505;28;20218;-61
2023/05/20 06:22:27;;;;;;;11.47;9.80;;;;;;;13.48;100.00;96449.72;5070958;28;20238;-61
2023/05/20 06:24:55;;;;;;;11.20;10.13;;;;;;;13.55;100.00;96456.88;5071397;28;20599;-60
2023/05/20 06:27:22;;;;;;;12.13;9.50;;;;;;;13.59;100.00;96442.25;5071192;28;20259;-61
2023/05/20 06:29:48;;;;;;;11.37;10.27;;;;;;;13.67;100.00;96426.31;5070838;28;20744;-60
2023/05/20 06:32:16;;;;;;;10.93;9.80;;;;;;;13.78;100.00;96425.94;5071009;28;20195;-59
2023/05/20 06:34:43;;;;;;;10.83;9.73;;;;;;;13.84;100.00;96427.97;5071052;28;20190;-60
2023/05/20 06:37:10;;;;;;;12.10;10.40;;;;;;;13.86;100.00;96433.09;5070529;28;20635;-61
2023/05/20 06:39:36;;;;;;;11.93;10.93;;;;;;;13.80;100.00;96431.13;5071287;28;20210;-61
2023/05/20 06:42:03;;;;;;;12.37;11.07;;;;;;;13.84;100.00;96430.63;5071156;28;20221;-60
2023/05/20 06:44:31;;;;;;;11.40;10.20;;;;;;;13.82;100.00;96429.94;5070903;28;20617;-60
2023/05/20 06:46:58;;;;;;;11.80;10.70;;;;;;;13.76;100.00;96422.63;5070537;28;20631;-60
2023/05/20 06:49:27;;;;;;;12.37;11.20;;;;;;;13.78;100.00;96431.25;5070970;28;20195;-60
2023/05/20 06:51:53;;;;;;;12.33;11.20;;;;;;;13.72;100.00;96434.59;5071335;28;20583;-61
2023/05/20 06:54:22;;;;;;;11.00;9.90;;;;;;;13.80;100.00;96439.09;5071376;28;20191;-59
2023/05/20 06:56:48;;;;;;;12.70;11.30;;;;;;;13.79;100.00;96440.91;5071111;28;20294;-60
2023/05/20 06:59:14;;;;;;;13.18;11.88;;;;;;;13.73;100.00;96432.78;5070265;28;20651;-61
2023/05/20 07:01:41;;;;;;;12.00;10.90;;;;;;;13.78;100.00;96427.81;5070674;28;20272;-61
2023/05/20 07:04:07;;;;;;;12.73;11.43;;;;;;;13.81;100.00;96441.59;5070698;28;20600;-60
2023/05/20 07:06:35;;;;;;;13.53;12.20;;;;;;;13.84;100.00;96435.94;5070537;28;20255;-60
2023/05/20 07:09:01;;;;;;;13.17;11.97;;;;;;;13.86;100.00;96449.88;5070672;28;20289;-60
2023/05/20 07:11:28;;;;;;;15.30;12.63;;;;;;;13.79;100.00;96435.59;5070682;28;20207;-61
2023/05/20 07:13:54;;;;;;;14.73;12.23;;;;;;;13.88;100.00;96431.09;5070105;28;20217;-60
2023/05/20 07:16:21;;;;;;;13.37;12.07;;;;;;;13.91;100.00;96426.28;5069677;28;20210;-61
2023/05/20 07:18:47;;;;;;;13.67;12.27;;;;;;;13.90;100.00;96421.97;5070808;28;20202;-60
2023/05/20 07:21:13;;;;;;;12.87;11.57;;;;;;;14.00;100.00;96424.41;5070846;28;20210;-61
2023/05/20 07:23:41;;;;;;;12.50;11.30;;;;;;;14.03;100.00;96418.75;5070699;28;20295;-62
2023/05/20 07:26:08;;;;;;;12.77;11.67;;;;;;;14.15;100.00;96421.91;5073373;28;20222;-60
2023/05/20 07:28:35;;;;;;;12.40;11.10;;;;;;;14.24;100.00;96415.56;5073389;28;20202;-61
2023/05/20 07:31:02;;;;;;;13.17;12.07;;;;;;;14.34;100.00;96418.88;5079652;28;20210;-60
2023/05/20 07:33:29;;;;;;;12.60;11.40;;;;;;;14.34;100.00;96416.22;5079925;28;20206;-61
2023/05/20 07:35:56;;;;;;;12.87;11.43;;;;;;;14.43;100.00;96415.19;5075572;28;20285;-60
2023/05/20 07:38:22;;;;;;;13.23;11.83;;;;;;;14.48;100.00;96420.84;5073752;28;20693;-62
2023/05/20 07:40:51;;;;;;;13.50;12.10;;;;;;;14.49;100.00;96411.81;5074051;28;20202;-59
2023/05/20 07:43:17;;;;;;;12.30;11.10;;;;;;;14.56;100.00;96410.13;5073602;28;20307;-59
2023/05/20 07:45:44;;;;;;;12.00;10.80;;;;;;;14.64;100.00;96411.94;5074513;28;20232;-60
2023/05/20 07:48:11;;;;;;;13.23;11.95;;;;;;;14.54;100.00;96412.16;5073959;28;20203;-61
2023/05/20 07:50:38;;;;;;;13.10;11.90;;;;;;;14.54;100.00;96414.81;5074670;28;20291;-61
2023/05/20 07:53:04;;;;;;;12.40;11.33;;;;;;;14.59;100.00;96409.81;5074070;28;20544;-61
2023/05/20 07:55:34;;;;;;;12.93;10.77;;;;;;;14.60;100.00;96406.13;5074221;28;20202;-60
2023/05/20 07:58:01;;;;;;;12.98;11.77;;;;;;;14.56;100.00;96414.66;5073397;28;20206;-59
2023/05/20 08:00:28;;;;;;;12.83;10.80;;;;;;;14.65;100.00;96406.44;5074006;28;20195;-62
2023/05/20 08:02:54;;;;;;;12.13;11.02;;;;;;;14.64;100.00;96401.28;5073793;28;20214;-61
2023/05/20 08:05:21;;;;;;;12.18;11.02;;;;;;;14.66;100.00;96397.47;5073851;28;20229;-63
2023/05/20 08:07:48;;;;;;;12.57;10.90;;;;;;;14.70;100.00;96400.63;5072574;28;20590;-62
2023/05/20 08:10:14;;;;;;;10.73;9.60;;;;;;;14.77;100.00;96402.38;5073638;28;20210;-61
2023/05/20 08:12:41;;;;;;;11.30;10.30;;;;;;;14.84;100.00;96397.22;5073012;28;20281;-61
2023/05/20 08:15:11;;;;;;;11.73;10.48;;;;;;;14.80;100.00;96407.38;5073375;28;20206;-61
2023/05/20 08:17:38;;;;;;;12.10;11.00;;;;;;;14.85;100.00;96399.69;5073480;28;20283;-61
2023/05/20 08:20:06;;;;;;;11.25;10.10;;;;;;;14.89;100.00;96390.34;5073984;28;20199;-61
2023/05/20 08:22:33;;;;;;;10.87;9.87;;;;;;;14.87;100.00;96396.84;5072874;28;20732;-62
2023/05/20 08:25:01;;;;;;;11.68;10.45;;;;;;;14.95;100.00;96397.63;5073371;28;20682;-62
2023/05/20 08:27:28;;;;;;;10.45;9.55;;;;;;;14.99;100.00;96399.91;5074106;28;20533;-61
2023/05/20 08:29:55;;;;;;;11.27;10.07;;;;;;;15.05;100.00;96386.75;5073620;28;20199;-62
2023/05/20 08:32:23;;;;;;;11.35;10.35;;;;;;;15.12;100.00;96406.34;5074150;28;20202;-61
2023/05/20 08:34:49;;;;;;;10.93;9.98;;;;;;;15.14;100.00;96403.50;5079251;28;20190;-62
2023/05/20 08:37:16;;;;;;;10.98;9.70;;;;;;;15.09;100.00;96400.53;5073270;28;20206;-62
2023/05/20 08:39:45;;;;;;;11.95;10.75;;;;;;;14.96;100.00;96403.78;5073912;28;20643;-61
2023/05/20 08:42:12;;;;;;;10.63;9.63;;;;;;;15.05;100.00;96400.06;5078142;28;20194;-62
2023/05/20 08:44:42;;;;;;;11.25;10.18;;;;;;;14.95;100.00;96396.78;5089314;28;20294;-65
2023/05/20 08:47:08;;;;;;;10.57;9.00;;;;;;;14.92;100.00;96397.13;5074259;28;20662;-61
2023/05/20 08:49:36;;;;;;;10.55;9.57;;;;;;;14.86;100.00;96398.69;5075534;28;20199;-61
2023/05/20 08:52:03;;;;;;;10.88;9.88;;;;;;;14.86;100.00;96389.84;5080499;28;20202;-61
2023/05/20 08:54:38;;;;;;;10.48;9.50;;;;;;;14.88;100.00;96395.81;5086540;28;20202;-61
2023/05/20 08:57:05;;;;;;;10.77;9.55;;;;;;;14.75;100.00;96399.06;5098951;28;20172;-61
2023/05/20 08:59:33;;;;;;;9.52;8.63;;;;;;;14.71;100.00;96395.09;5098267;28;20182;-61
2023/05/20 09:01:59;;;;;;;9.15;8.35;;;;;;;14.77;100.00;96396.25;5094268;28;20210;-60
2023/05/20 09:04:26;;;;;;;11.07;9.90;;;;;;;14.73;100.00;96387.78;5095758;28;20233;-61
2023/05/20 09:06:54;;;;;;;9.93;9.10;;;;;;;14.81;100.00;96387.72;5096450;28;20171;-60
2023/05/20 09:09:21;;;;;;;10.13;9.13;;;;;;;14.95;100.00;96381.63;5089195;28;20199;-61
2023/05/20 09:11:47;;;;;;;9.97;8.97;;;;;;;15.03;100.00;96385.25;5091922;28;20195;-60
2023/05/20 09:14:13;;;;;;;10.13;9.07;;;;;;;15.14;100.00;96384.84;5093831;28;20211;-60
2023/05/20 09:16:40;;;;;;;10.65;9.73;;;;;;;15.06;100.00;96384.91;5076075;28;20199;-60
2023/05/20 09:19:08;;;;;;;10.37;9.30;;;;;;;15.16;100.00;96388.97;5073669;28;20298;-60
2023/05/20 09:21:36;;;;;;;9.80;7.95;;;;;;;15.25;100.00;96387.94;5075091;28;20198;-60
2023/05/20 09:24:04;;;;;;;10.40;9.35;;;;;;;15.34;100.00;96394.00;5073007;28;20234;-60
2023/05/20 09:26:31;;;;;;;9.43;8.63;;;;;;;15.40;100.00;96394.16;5073236;28;20232;-61
2023/05/20 09:28:58;;;;;;;9.05;8.25;;;;;;;15.54;100.00;96387.22;5072122;28;20221;-60
2023/05/20 09:31:26;;;;;;;8.48;7.68;;;;;;;15.75;100.00;96382.03;5072835;28;20209;-61
2023/05/20 09:33:54;;;;;;;9.65;8.75;;;;;;;15.81;99.43;96389.31;5072201;28;20206;-61
2023/05/20 09:36:22;;;;;;;9.30;8.50;;;;;;;15.85;97.50;96392.44;5074951;28;20210;-59
2023/05/20 09:38:52;;;;;;;9.30;8.48;;;;;;;16.08;97.76;96379.03;5072740;28;20210;-62
2023/05/20 09:41:24;;;;;;;9.75;8.27;;;;;;;16.18;96.31;96383.09;5073242;28;20237;-61
2023/05/20 09:43:52;;;;;;;9.60;8.80;;;;;;;16.06;95.87;96381.06;5072009;28;20213;-60
2023/05/20 09:46:20;;;;;;;9.55;8.75;;;;;;;16.08;94.39;96379.03;5072485;28;20226;-60
2023/05/20 09:48:47;;;;;;;9.02;8.15;;;;;;;16.30;96.04;96378.09;5072529;28;20211;-60
2023/05/20 09:51:14;;;;;;;9.18;8.38;;;;;;;16.36;95.42;96372.06;5071416;28;20565;-61
2023/05/20 09:53:41;;;;;;;9.93;8.93;;;;;;;16.47;94.02;96376.91;5071968;28;20853;-60
2023/05/20 09:56:08;;;;;;;9.05;8.25;;;;;;;16.39;92.60;96379.69;5072508;28;20202;-60
2023/05/20 09:58:36;;;;;;;9.40;8.43;;;;;;;16.43;92.76;96370.28;5072144;28;20202;-59
2023/05/20 10:01:03;;;;;;;8.43;7.72;;;;;;;16.55;93.28;96363.44;5072320;28;20527;-60
2023/05/20 10:03:29;;;;;;;9.63;8.80;;;;;;;16.52;92.42;96363.81;5071790;28;20248;-60
2023/05/20 10:06:05;;;;;;;10.85;8.85;;;;;;;16.38;92.81;96368.19;5071223;28;20238;-59
2023/05/20 10:08:45;;;;;;;8.85;8.02;;;;;;;16.47;91.61;96366.25;5071512;28;20326;-60
2023/05/20 10:11:18;;;;;;;9.52;8.63;;;;;;;16.62;92.85;96363.56;5071347;28;20202;-59
2023/05/20 10:14:01;;;;;;;9.05;8.27;;;;;;;16.68;91.23;96347.63;5071007;28;20651;-59
2023/05/20 10:16:34;;;;;;;11.30;10.23;;;;;;;16.64;92.16;96350.88;5071729;28;20205;-61
2023/05/20 10:19:07;;;;;;;9.40;8.40;;;;;;;16.67;92.13;96362.00;5071128;28;21451;-60
2023/05/20 10:21:33;;;;;;;8.77;7.88;;;;;;;16.76;91.58;96355.50;5071546;28;20214;-59
2023/05/20 10:24:06;;;;;;;9.13;8.27;;;;;;;16.74;90.65;96351.38;5070683;28;20238;-60
2023/05/20 10:26:35;;;;;;;11.55;7.88;;;;;;;17.05;91.10;96361.78;5070974;28;21497;-59
2023/05/20 10:29:14;;;;;;;8.63;7.82;;;;;;;17.13;90.19;96356.31;5070016;28;20199;-61
2023/05/20 10:31:44;;;;;;;8.10;7.40;;;;;;;17.23;90.33;96362.19;5071366;28;20202;-62
2023/05/20 10:34:17;;;;;;;9.15;8.15;;;;;;;17.16;89.55;96353.25;5071537;28;20203;-61
2023/05/20 10:36:46;;;;;;;9.32;8.43;;;;;;;16.93;88.89;96354.25;5071158;28;20218;-60
2023/05/20 10:39:15;;;;;;;9.38;8.13;;;;;;;17.03;90.11;96351.31;5071077;28;20271;-60
2023/05/20 10:41:44;;;;;;;8.80;8.10;;;;;;;17.25;89.28;96338.78;5070353;28;20279;-60
2023/05/20 10:44:12;;;;;;;10.02;8.43;;;;;;;17.34;89.44;96342.97;5070947;28;20218;-61
2023/05/20 10:46:39;;;;;;;8.30;7.60;;;;;;;17.50;88.62;96347.22;5071094;28;20226;-61
2023/05/20 10:49:06;;;;;;;8.40;7.72;;;;;;;17.55;90.32;96344.78;5070652;28;20206;-60
2023/05/20 10:51:36;;;;;;;8.65;7.85;;;;;;;17.35;87.44;96345.44;5070775;28;20590;-60
2023/05/20 10:54:04;;;;;;;9.38;8.57;;;;;;;17.17;89.08;96357.59;5070977;28;20248;-59
2023/05/20 10:56:30;;;;;;;9.10;8.30;;;;;;;17.09;90.60;96349.69;5070493;28;20229;-61
2023/05/20 10:58:56;;;;;;;8.68;7.95;;;;;;;17.09;91.01;96349.69;5070701;28;20206;-59
2023/05/20 11:01:27;;;;;;;8.40;7.70;;;;;;;17.14;91.05;96347.31;5071193;28;21343;-61
2023/05/20 11:03:55;;;;;;;8.30;7.60;;;;;;;17.22;92.03;96333.78;5071531;28;20195;-61
2023/05/20 11:06:27;;;;;;;8.95;8.10;;;;;;;17.13;90.52;96340.28;5070551;28;20242;-61
2023/05/20 11:08:53;;;;;;;9.35;8.55;;;;;;;17.15;91.70;96333.72;5070796;28;20243;-60
2023/05/20 11:11:20;;;;;;;8.73;8.02;;;;;;;17.13;92.24;96329.59;5070705;28;20222;-60
2023/05/20 11:13:50;;;;;;;9.30;8.45;;;;;;;17.09;91.03;96329.16;5071070;28;20198;-60
2023/05/20 11:16:19;;;;;;;8.80;8.02;;;;;;;17.16;90.84;96338.06;5072246;28;20194;-60
2023/05/20 11:18:49;;;;;;;9.40;7.80;;;;;;;17.29;90.74;96334.69;5070721;28;20205;-60
2023/05/20 11:21:18;;;;;;;8.73;8.02;;;;;;;17.23;90.09;96336.28;5070917;28;20226;-60
2023/05/20 11:23:45;;;;;;;7.90;7.28;;;;;;;17.29;90.61;96332.00;5070648;28;20870;-61